createdAt,value
2022-10-02T00:01:30.378Z,9.50
2022-10-02T00:03:58.497Z,5.88
2022-10-02T00:06:28.706Z,6.78
2022-10-02T00:09:03.591Z,7.97
2022-10-02T00:11:45.577Z,8.15
2022-10-02T00:14:15.538Z,6.03
2022-10-02T00:16:46.540Z,11.63
2022-10-02T00:19:16.598Z,7.18
2022-10-02T00:21:49.296Z,8.68
2022-10-02T00:24:20.674Z,8.48
2022-10-02T00:27:03.794Z,6.45
2022-10-02T00:29:45.344Z,8.32
2022-10-02T00:32:25.071Z,10.52
2022-10-02T00:35:22.459Z,10.95
2022-10-02T00:38:10.844Z,7.00
2022-10-02T00:41:16.858Z,7.97
2022-10-02T00:44:06.035Z,7.35
2022-10-02T00:46:45.441Z,8.25
2022-10-02T00:49:25.039Z,6.30
2022-10-02T00:52:25.577Z,5.15
2022-10-02T00:55:03.974Z,9.52
2022-10-02T00:58:12.122Z,7.93
2022-10-02T01:00:39.735Z,4.80
2022-10-02T01:03:29.502Z,5.55
2022-10-02T01:05:55.815Z,8.82
2022-10-02T01:08:22.480Z,5.72
2022-10-02T01:10:49.068Z,4.22
2022-10-02T01:13:15.938Z,5.32
2022-10-02T01:15:51.650Z,6.88
2022-10-02T01:18:18.437Z,6.45
2022-10-02T01:20:48.515Z,9.27
2022-10-02T01:23:24.675Z,6.50
2022-10-02T01:25:51.211Z,7.07
2022-10-02T01:28:18.145Z,9.20
2022-10-02T01:30:48.177Z,7.05
2022-10-02T01:33:16.931Z,9.20
2022-10-02T01:35:44.348Z,8.18
2022-10-02T01:38:16.989Z,9.77
2022-10-02T01:40:43.518Z,5.45
2022-10-02T01:43:14.536Z,7.38
2022-10-02T01:45:48.993Z,7.93
2022-10-02T01:48:40.945Z,4.78
2022-10-02T01:51:35.068Z,4.03
2022-10-02T01:54:26.168Z,5.60
2022-10-02T01:57:02.356Z,6.53
2022-10-02T01:59:47.560Z,9.77
2022-10-02T02:02:33.773Z,7.80
2022-10-02T02:05:09.868Z,7.20
2022-10-02T02:07:48.418Z,5.05
2022-10-02T02:10:24.185Z,5.85
2022-10-02T02:12:56.339Z,5.10
2022-10-02T02:15:31.162Z,5.50
2022-10-02T02:18:25.414Z,7.18
2022-10-02T02:20:55.608Z,5.55
2022-10-02T02:23:27.317Z,6.65
2022-10-02T02:25:59.661Z,7.00
2022-10-02T02:28:29.575Z,5.63
2022-10-02T02:30:58.192Z,4.72
2022-10-02T02:33:32.841Z,9.60
2022-10-02T02:36:06.662Z,8.07
2022-10-02T02:38:37.678Z,7.15
2022-10-02T02:41:18.182Z,11.30
2022-10-02T02:43:53.807Z,7.30
2022-10-02T02:46:32.857Z,7.40
2022-10-02T02:49:08.226Z,8.13
2022-10-02T02:51:41.098Z,7.40
2022-10-02T02:54:18.975Z,12.00
2022-10-02T02:56:48.281Z,20.13
2022-10-02T02:59:15.620Z,10.80
2022-10-02T03:01:42.567Z,5.22
2022-10-02T03:04:12.543Z,6.45
2022-10-02T03:06:44.315Z,9.40
2022-10-02T03:09:14.743Z,7.43
2022-10-02T03:11:50.365Z,8.57
2022-10-02T03:14:37.000Z,6.80
2022-10-02T03:17:28.676Z,6.43
2022-10-02T03:20:08.564Z,6.38
2022-10-02T03:22:44.095Z,8.07
2022-10-02T03:25:33.318Z,8.80
2022-10-02T03:28:08.594Z,6.70
2022-10-02T03:30:36.427Z,6.22
2022-10-02T03:33:04.972Z,8.60
2022-10-02T03:35:32.306Z,5.32
2022-10-02T03:38:03.504Z,6.68
2022-10-02T03:40:30.168Z,6.88
2022-10-02T03:42:57.114Z,10.00
2022-10-02T03:45:46.598Z,11.00
2022-10-02T03:48:14.338Z,7.22
2022-10-02T03:50:41.071Z,8.75
2022-10-02T03:53:14.852Z,5.82
2022-10-02T03:55:45.610Z,9.70
2022-10-02T04:00:58.747Z,9.25
2022-10-02T04:03:36.842Z,10.10
2022-10-02T04:06:12.853Z,8.30
2022-10-02T04:08:47.093Z,8.07
2022-10-02T04:11:25.334Z,10.68
2022-10-02T04:14:06.054Z,8.50
2022-10-02T04:16:40.794Z,6.70
2022-10-02T04:19:18.627Z,9.82
2022-10-02T04:22:06.524Z,7.47
2022-10-02T04:24:57.582Z,5.32
2022-10-02T04:27:56.740Z,11.63
2022-10-02T04:30:23.554Z,6.93
2022-10-02T04:32:50.551Z,6.05
2022-10-02T04:35:39.666Z,7.47
2022-10-02T04:38:47.413Z,7.53
2022-10-02T04:41:39.352Z,8.20
2022-10-02T04:44:36.719Z,7.53
2022-10-02T04:47:36.801Z,11.50
2022-10-02T04:50:30.538Z,11.13
2022-10-02T04:53:15.042Z,14.18
2022-10-02T04:56:03.115Z,10.38
2022-10-02T04:58:44.653Z,9.00
2022-10-02T05:01:45.999Z,10.50
2022-10-02T05:04:40.722Z,13.13
2022-10-02T05:07:37.878Z,6.43
2022-10-02T05:10:36.962Z,9.63
2022-10-02T05:13:22.523Z,10.65
2022-10-02T05:15:57.538Z,8.38
2022-10-02T05:18:54.201Z,9.55
2022-10-02T05:21:52.190Z,6.85
2022-10-02T05:24:38.704Z,10.35
2022-10-02T05:27:33.098Z,9.02
2022-10-02T05:30:19.248Z,7.30
2022-10-02T05:33:07.757Z,11.73
2022-10-02T05:36:19.100Z,9.88
2022-10-02T05:39:05.654Z,7.07
2022-10-02T05:41:41.239Z,5.78
2022-10-02T05:44:15.234Z,10.18
2022-10-02T05:47:12.375Z,8.23
2022-10-02T05:49:41.480Z,7.50
2022-10-02T05:52:10.694Z,8.65
2022-10-02T05:54:55.035Z,9.65
2022-10-02T05:57:32.645Z,6.05
2022-10-02T06:00:26.107Z,25.38
2022-10-02T06:03:06.402Z,15.18
2022-10-02T06:05:52.890Z,11.40
2022-10-02T06:08:26.950Z,6.90
2022-10-02T06:10:58.630Z,7.50
2022-10-02T06:13:32.228Z,7.32
2022-10-02T06:16:11.088Z,10.38
2022-10-02T06:18:42.917Z,7.75
2022-10-02T06:21:43.207Z,10.80
2022-10-02T06:24:20.481Z,10.23
2022-10-02T06:27:00.861Z,9.00
2022-10-02T06:29:48.385Z,9.75
2022-10-02T06:32:33.573Z,7.10
2022-10-02T06:35:00.995Z,9.82
2022-10-02T06:38:26.304Z,6.22
2022-10-02T06:41:00.793Z,5.95
2022-10-02T06:44:23.970Z,7.45
2022-10-02T06:47:14.769Z,7.82
2022-10-02T06:49:51.587Z,12.07
2022-10-02T06:52:27.158Z,14.90
2022-10-02T06:55:15.010Z,10.15
2022-10-02T06:58:07.589Z,9.52
2022-10-02T07:00:47.031Z,14.52
2022-10-02T07:03:27.545Z,10.80
2022-10-02T07:06:34.884Z,15.32
2022-10-02T07:09:33.531Z,14.65
2022-10-02T07:12:37.096Z,12.65
2022-10-02T07:15:03.447Z,9.20
2022-10-02T07:17:45.418Z,12.43
2022-10-02T07:20:14.668Z,10.55
2022-10-02T07:22:59.831Z,8.50
2022-10-02T07:26:04.317Z,7.60
2022-10-02T07:28:52.778Z,6.70
2022-10-02T07:31:44.076Z,8.55
2022-10-02T07:34:25.797Z,7.07
2022-10-02T07:37:14.253Z,5.32
2022-10-02T07:40:06.490Z,8.02
2022-10-02T07:43:04.100Z,8.32
2022-10-02T07:46:18.574Z,11.65
2022-10-02T07:49:06.511Z,12.27
2022-10-02T07:52:17.903Z,16.60
2022-10-02T07:54:57.085Z,16.70
2022-10-02T07:57:32.825Z,13.40
2022-10-02T08:00:06.211Z,26.88
2022-10-02T08:02:39.446Z,23.45
2022-10-02T08:05:17.309Z,16.33
2022-10-02T08:07:46.878Z,12.00
2022-10-02T08:10:15.103Z,17.08
2022-10-02T08:12:50.109Z,16.58
2022-10-02T08:15:20.664Z,12.07
2022-10-02T08:17:58.712Z,14.43
2022-10-02T08:20:38.015Z,11.57
2022-10-02T08:23:25.257Z,12.25
2022-10-02T08:26:04.827Z,9.40
2022-10-02T08:28:56.793Z,12.55
2022-10-02T08:31:23.221Z,8.60
2022-10-02T08:33:49.901Z,9.02
2022-10-02T08:36:44.045Z,8.98
2022-10-02T08:39:34.638Z,8.82
2022-10-02T08:42:18.843Z,10.70
2022-10-02T08:45:04.420Z,9.95
2022-10-02T08:47:54.045Z,7.70
2022-10-02T08:50:27.330Z,13.30
2022-10-02T08:53:26.028Z,9.50
2022-10-02T08:56:20.488Z,10.25
2022-10-02T08:59:07.329Z,10.40
2022-10-02T09:01:48.739Z,7.80
2022-10-02T09:04:37.176Z,13.32
2022-10-02T09:07:29.239Z,7.57
2022-10-02T09:10:13.615Z,6.82
2022-10-02T09:13:04.969Z,10.35
2022-10-02T09:15:53.210Z,5.75
2022-10-02T09:18:54.897Z,9.00
2022-10-02T09:21:48.572Z,8.88
2022-10-02T09:24:54.198Z,8.68
2022-10-02T09:27:41.762Z,6.43
2022-10-02T09:30:20.004Z,5.90
2022-10-02T09:33:17.850Z,11.52
2022-10-02T09:35:58.644Z,8.30
2022-10-02T09:38:54.273Z,6.32
2022-10-02T09:41:58.893Z,8.95
2022-10-02T09:44:43.857Z,6.88
2022-10-02T09:47:23.011Z,7.30
2022-10-02T09:49:58.254Z,8.05
2022-10-02T09:53:03.338Z,7.32
2022-10-02T09:55:49.878Z,5.88
2022-10-02T09:58:38.377Z,7.38
2022-10-02T10:01:25.987Z,6.57
2022-10-02T10:04:04.298Z,6.47
2022-10-02T10:07:19.049Z,6.38
2022-10-02T10:10:10.166Z,7.47
2022-10-02T10:12:57.480Z,6.60
2022-10-02T10:15:57.142Z,4.57
2022-10-02T10:18:34.538Z,8.40
2022-10-02T10:21:34.677Z,5.57
2022-10-02T10:24:28.928Z,7.22
2022-10-02T10:27:00.305Z,5.68
2022-10-02T10:29:52.050Z,9.73
2022-10-02T10:32:46.159Z,4.95
2022-10-02T10:35:22.424Z,7.72
2022-10-02T10:38:19.402Z,4.50
2022-10-02T10:40:53.462Z,6.03
2022-10-02T10:43:38.454Z,4.22
2022-10-02T10:46:33.692Z,5.57
2022-10-02T10:49:37.938Z,3.63
2022-10-02T10:52:48.968Z,3.95
2022-10-02T10:55:23.604Z,2.85
2022-10-02T10:58:16.096Z,2.60
2022-10-02T11:00:58.356Z,2.25
2022-10-02T11:04:01.093Z,2.95
2022-10-02T11:06:35.813Z,3.42
2022-10-02T11:09:33.517Z,1.83
2022-10-02T11:12:11.858Z,2.15
2022-10-02T11:14:54.154Z,2.78
2022-10-02T11:17:35.638Z,2.13
2022-10-02T11:20:05.153Z,2.17
2022-10-02T11:22:56.270Z,3.28
2022-10-02T11:26:00.924Z,3.10
2022-10-02T11:28:44.184Z,3.35
2022-10-02T11:31:29.971Z,2.35
2022-10-02T11:34:35.354Z,3.47
2022-10-02T11:37:10.662Z,4.00
2022-10-02T11:40:09.075Z,1.52
2022-10-02T11:42:56.538Z,2.10
2022-10-02T11:45:48.126Z,1.58
2022-10-02T11:48:52.049Z,0.73
2022-10-02T11:51:27.478Z,0.65
2022-10-02T11:54:09.185Z,0.60
2022-10-02T11:56:59.849Z,0.45
2022-10-02T11:59:57.235Z,1.35
2022-10-02T12:02:33.253Z,0.40
2022-10-02T12:05:31.584Z,0.43
2022-10-02T12:08:03.810Z,0.45
2022-10-02T12:10:42.951Z,0.35
2022-10-02T12:13:23.281Z,0.35
2022-10-02T12:16:05.957Z,0.73
2022-10-02T12:18:51.636Z,0.60
2022-10-02T12:21:36.511Z,2.97
2022-10-02T12:24:29.602Z,0.90
2022-10-02T12:27:31.573Z,1.40
2022-10-02T12:30:07.498Z,0.60
2022-10-02T12:32:36.704Z,0.70
2022-10-02T12:35:35.429Z,0.60
2022-10-02T12:38:12.267Z,1.17
2022-10-02T12:41:00.446Z,0.95
2022-10-02T12:43:41.957Z,1.10
2022-10-02T12:46:45.511Z,0.85
2022-10-02T12:49:43.283Z,2.13
2022-10-02T12:52:31.025Z,0.82
2022-10-02T12:55:34.974Z,2.72
2022-10-02T12:58:19.696Z,1.10
2022-10-02T13:01:13.462Z,1.02
2022-10-02T13:04:17.173Z,0.98
2022-10-02T13:07:06.959Z,1.60
2022-10-02T13:09:33.271Z,2.08
2022-10-02T13:12:22.618Z,1.25
2022-10-02T13:15:07.319Z,1.65
2022-10-02T13:17:49.566Z,1.27
2022-10-02T13:20:38.699Z,1.80
2022-10-02T13:23:29.814Z,2.88
2022-10-02T13:26:09.359Z,2.50
2022-10-02T13:29:18.299Z,1.80
2022-10-02T13:32:14.515Z,2.10
2022-10-02T13:35:05.928Z,1.88
2022-10-02T13:37:38.311Z,1.38
2022-10-02T13:40:24.129Z,1.08
2022-10-02T13:43:18.003Z,1.50
2022-10-02T13:46:02.538Z,1.67
2022-10-02T13:48:44.095Z,1.15
2022-10-02T13:51:17.083Z,1.42
2022-10-02T13:54:05.604Z,1.55
2022-10-02T13:56:56.178Z,0.50
2022-10-02T13:59:28.733Z,1.45
2022-10-02T14:02:23.696Z,0.77
2022-10-02T14:04:58.419Z,0.60
2022-10-02T14:07:44.384Z,0.82
2022-10-02T14:10:36.487Z,0.52
2022-10-02T14:13:16.248Z,0.80
2022-10-02T14:15:58.397Z,1.47
2022-10-02T14:18:36.864Z,1.23
2022-10-02T14:21:23.835Z,0.88
2022-10-02T14:24:01.457Z,0.73
2022-10-02T14:26:49.038Z,0.95
2022-10-02T14:29:35.613Z,0.50
2022-10-02T14:32:20.773Z,0.80
2022-10-02T14:34:52.997Z,0.30
2022-10-02T14:37:54.614Z,1.27
2022-10-02T14:40:21.397Z,1.02
2022-10-02T14:42:53.719Z,0.80
2022-10-02T14:45:47.372Z,0.52
2022-10-02T14:48:27.892Z,0.50
2022-10-02T14:51:06.520Z,0.82
2022-10-02T14:54:01.566Z,0.57
2022-10-02T14:56:47.603Z,0.57
2022-10-02T14:59:16.931Z,0.50
2022-10-02T15:01:56.397Z,1.40
2022-10-02T15:04:53.357Z,1.30
2022-10-02T15:07:22.652Z,0.60
2022-10-02T15:09:54.600Z,1.77
2022-10-02T15:12:25.800Z,0.93
2022-10-02T15:15:01.243Z,0.70
2022-10-02T15:18:05.110Z,2.47
2022-10-02T15:21:15.656Z,2.42
2022-10-02T15:23:42.129Z,1.42
2022-10-02T15:26:17.045Z,1.70
2022-10-02T15:29:05.499Z,2.25
2022-10-02T15:31:39.577Z,2.95
2022-10-02T15:34:35.846Z,1.90
2022-10-02T15:37:17.050Z,2.40
2022-10-02T15:40:02.689Z,2.05
2022-10-02T15:42:49.729Z,1.35
2022-10-02T15:45:32.043Z,1.90
2022-10-02T15:48:17.056Z,3.90
2022-10-02T15:50:57.004Z,1.80
2022-10-02T15:53:48.393Z,1.25
2022-10-02T15:56:42.990Z,2.05
2022-10-02T15:59:59.706Z,1.77
2022-10-02T16:02:32.026Z,1.80
2022-10-02T16:05:19.944Z,2.60
2022-10-02T16:08:04.013Z,3.08
2022-10-02T16:10:48.889Z,2.35
2022-10-02T16:13:27.432Z,1.63
2022-10-02T16:16:05.244Z,1.27
2022-10-02T16:18:41.048Z,1.83
2022-10-02T16:21:26.464Z,3.45
2022-10-02T16:24:01.693Z,2.65
2022-10-02T16:27:17.016Z,3.13
2022-10-02T16:30:09.917Z,2.90
2022-10-02T16:32:39.638Z,2.45
2022-10-02T16:35:18.172Z,3.15
2022-10-02T16:37:45.443Z,2.97
2022-10-02T16:40:41.528Z,3.83
2022-10-02T16:43:45.431Z,4.40
2022-10-02T16:46:47.839Z,3.42
2022-10-02T16:49:33.091Z,3.17
2022-10-02T16:52:17.335Z,4.63
2022-10-02T16:54:58.713Z,4.97
2022-10-02T16:57:50.100Z,4.75
2022-10-02T17:00:24.298Z,4.70
2022-10-02T17:03:19.562Z,5.50
2022-10-02T17:06:11.488Z,3.97
2022-10-02T17:08:52.499Z,8.27
2022-10-02T17:11:23.668Z,5.60
2022-10-02T17:14:11.747Z,5.20
2022-10-02T17:16:50.494Z,7.68
2022-10-02T17:19:27.481Z,7.03
2022-10-02T17:22:27.102Z,9.25
2022-10-02T17:25:35.980Z,9.90
2022-10-02T17:28:09.865Z,6.35
2022-10-02T17:31:00.528Z,7.82
2022-10-02T17:33:28.737Z,8.82
2022-10-02T17:36:01.259Z,6.63
2022-10-02T17:38:44.752Z,7.65
2022-10-02T17:41:42.662Z,7.35
2022-10-02T17:44:52.307Z,6.32
2022-10-02T17:47:34.378Z,9.43
2022-10-02T17:50:00.721Z,10.05
2022-10-02T17:52:50.019Z,22.55
2022-10-02T17:55:54.531Z,16.00
2022-10-02T17:58:51.852Z,14.18
2022-10-02T18:01:24.188Z,9.23
2022-10-02T18:04:09.435Z,9.48
2022-10-02T18:06:46.215Z,8.23
2022-10-02T18:09:24.925Z,6.70
2022-10-02T18:12:11.426Z,9.68
2022-10-02T18:15:15.874Z,6.65
2022-10-02T18:18:10.031Z,7.63
2022-10-02T18:21:05.105Z,7.35
2022-10-02T18:23:43.095Z,9.30
2022-10-02T18:26:18.888Z,9.13
2022-10-02T18:29:16.515Z,8.45
2022-10-02T18:31:56.313Z,8.77
2022-10-02T18:34:29.263Z,6.63
2022-10-02T18:37:16.912Z,5.65
2022-10-02T18:40:10.990Z,7.25
2022-10-02T18:42:47.353Z,7.88
2022-10-02T18:45:39.650Z,6.85
2022-10-02T18:48:09.205Z,6.38
2022-10-02T18:50:48.711Z,8.60
2022-10-02T18:53:37.329Z,9.13
2022-10-02T18:56:07.846Z,9.57
2022-10-02T18:58:42.996Z,6.47
2022-10-02T19:01:25.422Z,13.35
2022-10-02T19:04:03.715Z,16.65
2022-10-02T19:06:45.482Z,19.20
2022-10-02T19:09:25.819Z,17.83
2022-10-02T19:11:56.892Z,14.93
2022-10-02T19:14:38.670Z,15.85
2022-10-02T19:17:10.931Z,15.32
2022-10-02T19:19:38.084Z,11.32
2022-10-02T19:22:16.197Z,12.35
2022-10-02T19:24:44.522Z,9.85
2022-10-02T19:27:19.965Z,7.97
2022-10-02T19:29:54.829Z,7.25
2022-10-02T19:32:34.034Z,6.57
2022-10-02T19:35:04.901Z,6.80
2022-10-02T19:40:02.115Z,10.30
2022-10-02T19:42:32.787Z,7.63
2022-10-02T19:45:03.311Z,7.07
2022-10-02T19:47:41.570Z,8.57
2022-10-02T19:50:38.392Z,6.45
2022-10-02T19:53:15.634Z,8.25
2022-10-02T19:55:43.892Z,5.65
2022-10-02T19:58:20.054Z,5.82
2022-10-02T20:00:47.546Z,6.03
2022-10-02T20:03:20.735Z,5.28
2022-10-02T20:05:52.963Z,7.80
2022-10-02T20:08:25.265Z,7.93
2022-10-02T20:11:06.171Z,6.57
2022-10-02T20:16:25.289Z,10.75
2022-10-02T20:18:52.324Z,7.80
2022-10-02T20:21:40.278Z,7.43
2022-10-02T20:24:16.714Z,6.45
2022-10-02T20:26:45.529Z,7.68
2022-10-02T20:29:18.658Z,9.05
2022-10-02T20:31:48.516Z,9.02
2022-10-02T20:34:31.631Z,8.33
2022-10-02T20:37:06.099Z,10.73
2022-10-02T20:39:45.046Z,10.85
2022-10-02T20:42:17.373Z,17.52
2022-10-02T20:44:43.678Z,16.05
2022-10-02T20:47:22.276Z,13.02
2022-10-02T20:50:09.343Z,12.50
2022-10-02T20:52:57.850Z,12.20
2022-10-02T20:55:36.196Z,12.50
2022-10-02T20:58:24.285Z,12.82
2022-10-02T21:01:14.469Z,9.25
2022-10-02T21:06:56.168Z,10.00
2022-10-02T21:10:16.666Z,10.13
2022-10-02T21:13:01.629Z,9.35
2022-10-02T21:15:44.145Z,7.22
2022-10-02T21:18:34.679Z,6.18
2022-10-02T21:21:24.756Z,5.32
2022-10-02T21:24:00.677Z,4.78
2022-10-02T21:26:56.226Z,7.03
2022-10-02T21:29:28.774Z,5.65
2022-10-02T21:32:12.913Z,4.97
2022-10-02T21:34:48.558Z,5.53
2022-10-02T21:37:30.918Z,4.80
2022-10-02T21:40:32.980Z,7.85
2022-10-02T21:43:25.890Z,3.65
2022-10-02T21:46:27.882Z,8.60
2022-10-02T21:49:16.066Z,6.45
2022-10-02T21:52:14.336Z,5.32
2022-10-02T21:54:58.695Z,6.22
2022-10-02T21:57:49.412Z,5.20
2022-10-02T22:00:22.100Z,4.78
2022-10-02T22:03:27.229Z,5.93
2022-10-02T22:06:27.862Z,3.10
2022-10-02T22:09:15.796Z,6.10
2022-10-02T22:11:58.549Z,4.00
2022-10-02T22:14:32.665Z,6.70
2022-10-02T22:17:15.769Z,5.68
2022-10-02T22:19:48.837Z,7.60
2022-10-02T22:23:00.433Z,5.60
2022-10-02T22:25:43.634Z,9.35
2022-10-02T22:28:23.061Z,8.05
2022-10-02T22:30:55.523Z,8.73
2022-10-02T22:33:37.785Z,9.20
2022-10-02T22:36:43.173Z,8.52
2022-10-02T22:39:24.827Z,7.50
2022-10-02T22:42:13.973Z,6.82
2022-10-02T22:44:52.796Z,6.05
2022-10-02T22:47:37.693Z,6.20
2022-10-02T22:50:13.409Z,5.78
2022-10-02T22:53:00.416Z,6.40
2022-10-02T22:55:32.760Z,10.00
2022-10-02T22:58:01.552Z,8.85
2022-10-02T23:00:36.416Z,7.43
2022-10-02T23:03:15.258Z,12.85
2022-10-02T23:06:20.183Z,14.27
2022-10-02T23:09:08.004Z,11.43
2022-10-02T23:11:43.747Z,10.73
2022-10-02T23:14:23.079Z,9.35
2022-10-02T23:17:01.894Z,8.80
2022-10-02T23:19:42.203Z,8.90
2022-10-02T23:22:19.874Z,10.07
2022-10-02T23:25:12.685Z,13.63
2022-10-02T23:27:51.979Z,13.40
2022-10-02T23:30:20.431Z,17.52
2022-10-02T23:33:06.923Z,13.38
2022-10-02T23:35:46.499Z,15.75
2022-10-02T23:38:20.845Z,11.60
2022-10-02T23:41:08.072Z,18.50
2022-10-02T23:43:42.445Z,18.77
2022-10-02T23:46:17.218Z,43.45
2022-10-02T23:48:45.040Z,43.13
2022-10-02T23:51:23.743Z,36.67
2022-10-02T23:53:58.778Z,39.83
2022-10-02T23:56:31.049Z,40.30
2022-10-02T23:59:21.065Z,36.65
